Time;durP1;ratioP1;P1;durP2;ratioP2;P2;SDS_P1;SDS_P2;PMS_P1;PMS_P2;Temp;Humidity;BMP_temperature;BMP_pressure;BME280_temperature;BME280_humidity;BME280_pressure;Samples;Min_cycle;Max_cycle;Signal;HPM_P1;HPM_P2
2024/03/12 00:00:32;;;;;;;18.73;9.10;;;;;;;;;;5026789;28;20109;-84
2024/03/12 00:02:58;;;;;;;11.80;3.65;;;;;;;;;;5020680;28;20037;-83
2024/03/12 00:05:24;;;;;;;14.40;4.65;;;;;;;;;;5013682;28;22566;-79
2024/03/12 00:07:51;;;;;;;24.80;15.38;;;;;;;;;;5011445;28;20037;-84
2024/03/12 00:10:19;;;;;;;16.10;8.57;;;;;;;;;;5005701;28;20038;-83
2024/03/12 00:12:49;;;;;;;37.83;25.17;;;;;;;;;;5017883;28;20311;-84
2024/03/12 00:15:26;;;;;;;40.47;28.05;;;;;;;;;;5019487;28;20060;-84
2024/03/12 00:17:53;;;;;;;64.80;48.08;;;;;;;;;;5022895;28;20033;-81
2024/03/12 00:20:29;;;;;;;50.85;36.05;;;;;;;;;;5028083;28;20048;-82
2024/03/12 00:22:57;;;;;;;88.70;70.82;;;;;;;;;;5032511;28;20041;-83
2024/03/12 00:25:23;;;;;;;20.98;12.77;;;;;;;;;;5024621;28;20018;-82
2024/03/12 00:27:50;;;;;;;13.75;5.43;;;;;;;;;;5023137;28;20147;-83
2024/03/12 00:30:18;;;;;;;10.25;2.53;;;;;;;;;;5018700;28;20025;-82
2024/03/12 00:32:47;;;;;;;11.93;3.60;;;;;;;;;;5020630;28;20033;-83
2024/03/12 00:35:14;;;;;;;11.35;3.53;;;;;;;;;;5019001;28;20029;-82
2024/03/12 00:37:47;;;;;;;14.45;5.03;;;;;;;;;;5023177;28;20057;-82
2024/03/12 00:40:13;;;;;;;11.50;3.33;;;;;;;;;;5013171;28;20033;-85
2024/03/12 00:42:39;;;;;;;;;;;;;;;;;;5012429;28;20033;-83
2024/03/12 00:45:12;;;;;;;10.88;3.53;;;;;;;;;;5022093;28;19917;-83
2024/03/12 00:47:38;;;;;;;13.63;2.80;;;;;;;;;;5022055;28;20044;-83
2024/03/12 00:50:07;;;;;;;12.85;4.57;;;;;;;;;;5022109;28;20045;-82
2024/03/12 00:52:33;;;;;;;10.82;3.55;;;;;;;;;;5024238;28;20032;-82
2024/03/12 00:55:04;;;;;;;11.40;2.65;;;;;;;;;;5024634;28;20056;-84
2024/03/12 00:57:30;;;;;;;12.10;2.50;;;;;;;;;;5022563;28;20021;-82
2024/03/12 00:59:57;;;;;;;11.40;3.00;;;;;;;;;;5021020;28;20025;-84
2024/03/12 01:02:25;;;;;;;12.60;3.13;;;;;;;;;;5015781;28;20025;-84
2024/03/12 01:04:55;;;;;;;10.32;2.55;;;;;;;;;;5023266;28;20586;-84
2024/03/12 01:07:22;;;;;;;10.35;2.28;;;;;;;;;;5018961;28;20049;-84
2024/03/12 01:09:48;;;;;;;;;;;;;;;;;;5017951;28;20030;-83
2024/03/12 01:12:15;;;;;;;10.57;2.40;;;;;;;;;;5015711;28;20343;-84
2024/03/12 01:14:42;;;;;;;14.48;3.10;;;;;;;;;;5020780;28;20049;-83
2024/03/12 01:17:08;;;;;;;14.40;5.85;;;;;;;;;;5020659;28;20057;-85
2024/03/12 01:19:35;;;;;;;11.73;3.35;;;;;;;;;;5022506;28;20341;-84
2024/03/12 01:22:02;;;;;;;11.43;3.30;;;;;;;;;;5021246;28;20393;-85
2024/03/12 01:24:28;;;;;;;11.13;2.47;;;;;;;;;;5024922;28;20197;-83
2024/03/12 01:26:55;;;;;;;9.27;2.25;;;;;;;;;;5030277;28;20037;-84
2024/03/12 01:29:22;;;;;;;12.55;2.67;;;;;;;;;;5030498;28;20033;-83
2024/03/12 01:31:50;;;;;;;11.95;2.85;;;;;;;;;;5026158;28;20025;-83
2024/03/12 01:34:18;;;;;;;12.90;2.78;;;;;;;;;;5027434;28;20037;-83
2024/03/12 01:36:47;;;;;;;9.35;2.40;;;;;;;;;;5027148;28;20286;-84
2024/03/12 01:39:16;;;;;;;11.68;2.92;;;;;;;;;;5024202;28;20455;-83
2024/03/12 01:41:42;;;;;;;17.35;3.13;;;;;;;;;;5029534;28;20048;-82
2024/03/12 01:44:09;;;;;;;11.88;2.65;;;;;;;;;;5020055;28;20065;-82
2024/03/12 01:46:35;;;;;;;;;;;;;;;;;;5019899;28;20026;-82
2024/03/12 01:49:04;;;;;;;12.15;2.40;;;;;;;;;;5016003;28;19925;-83
2024/03/12 01:51:31;;;;;;;11.32;2.25;;;;;;;;;;5017325;28;20032;-81
2024/03/12 01:53:57;;;;;;;11.35;2.55;;;;;;;;;;5017014;28;20087;-81
2024/03/12 01:56:27;;;;;;;11.50;2.40;;;;;;;;;;5015171;28;20068;-82
2024/03/12 01:58:53;;;;;;;13.13;2.55;;;;;;;;;;5017714;28;20044;-83
2024/03/12 02:01:20;;;;;;;12.88;2.47;;;;;;;;;;5015023;28;20029;-83
2024/03/12 02:03:48;;;;;;;11.55;2.63;;;;;;;;;;5016162;28;20063;-83
2024/03/12 02:06:14;;;;;;;13.27;2.53;;;;;;;;;;5013746;28;20648;-85
2024/03/12 02:08:40;;;;;;;9.35;2.50;;;;;;;;;;5015671;28;20117;-82
2024/03/12 02:11:06;;;;;;;;;;;;;;;;;;5020791;28;20030;-82
2024/03/12 02:13:33;;;;;;;10.73;2.53;;;;;;;;;;5023123;28;19916;-85
2024/03/12 02:15:59;;;;;;;14.48;2.70;;;;;;;;;;5026668;28;20034;-81
2024/03/12 02:18:25;;;;;;;11.25;2.47;;;;;;;;;;5022404;28;20030;-82
2024/03/12 02:20:51;;;;;;;8.52;2.75;;;;;;;;;;5037615;28;20056;-83
2024/03/12 02:23:17;;;;;;;12.63;4.03;;;;;;;;;;5019021;28;20628;-82
2024/03/12 02:25:43;;;;;;;;;;;;;;;;;;5021277;28;20487;-83
2024/03/12 02:28:09;;;;;;;16.45;8.30;;;;;;;;;;5015750;28;19927;-83
2024/03/12 02:30:35;;;;;;;12.57;4.55;;;;;;;;;;5022076;28;20038;-82
2024/03/12 02:33:03;;;;;;;11.98;5.43;;;;;;;;;;5014571;28;20034;-81
2024/03/12 02:35:29;;;;;;;12.63;3.53;;;;;;;;;;5013952;28;20025;-82
2024/03/12 02:37:55;;;;;;;11.95;2.80;;;;;;;;;;5018639;28;20802;-82
2024/03/12 02:40:22;;;;;;;;;;;;;;;;;;5018170;28;20038;-84
2024/03/12 02:42:48;;;;;;;21.73;8.43;;;;;;;;;;5014206;28;19960;-82
2024/03/12 02:45:14;;;;;;;14.23;4.47;;;;;;;;;;5017299;28;20067;-82
2024/03/12 02:47:42;;;;;;;15.18;4.65;;;;;;;;;;5015250;28;20460;-84
2024/03/12 02:50:08;;;;;;;12.55;3.80;;;;;;;;;;5017879;28;20045;-82
2024/03/12 02:52:35;;;;;;;10.68;2.80;;;;;;;;;;5015496;28;20380;-82
2024/03/12 02:55:01;;;;;;;12.80;2.67;;;;;;;;;;5015465;28;20036;-85
2024/03/12 02:57:27;;;;;;;12.27;3.60;;;;;;;;;;5013798;28;20129;-83
2024/03/12 02:59:53;;;;;;;11.85;2.70;;;;;;;;;;5014838;28;20059;-83
2024/03/12 03:02:20;;;;;;;10.55;2.45;;;;;;;;;;5012483;28;20017;-83
2024/03/12 03:04:46;;;;;;;;;;;;;;;;;;5019414;28;20013;-83
2024/03/12 03:07:12;;;;;;;12.05;2.70;;;;;;;;;;5017581;28;19995;-83
2024/03/12 03:09:38;;;;;;;11.05;2.38;;;;;;;;;;5019806;28;20036;-83
2024/03/12 03:12:04;;;;;;;10.43;2.50;;;;;;;;;;5023279;28;20029;-83
2024/03/12 03:14:30;;;;;;;;;;;;;;;;;;5020569;28;20045;-82
2024/03/12 03:16:57;;;;;;;10.20;2.17;;;;;;;;;;5018000;28;19963;-82
2024/03/12 03:19:23;;;;;;;9.25;2.20;;;;;;;;;;5014037;28;20556;-85
2024/03/12 03:21:49;;;;;;;10.38;2.47;;;;;;;;;;5015256;28;20047;-82
2024/03/12 03:24:15;;;;;;;;;;;;;;;;;;5018856;28;20041;-85
2024/03/12 03:26:41;;;;;;;15.57;5.78;;;;;;;;;;5021982;28;19916;-82
2024/03/12 03:29:07;;;;;;;15.02;5.68;;;;;;;;;;5029574;28;20067;-85
2024/03/12 03:31:34;;;;;;;12.10;3.25;;;;;;;;;;5030375;28;20600;-82
2024/03/12 03:34:04;;;;;;;11.32;3.38;;;;;;;;;;5022394;28;20536;-82
2024/03/12 03:36:31;;;;;;;9.80;3.13;;;;;;;;;;5014997;28;20098;-83
2024/03/12 03:38:57;;;;;;;8.93;2.80;;;;;;;;;;5018201;28;20042;-84
2024/03/12 03:41:23;;;;;;;8.48;2.60;;;;;;;;;;5014224;28;20026;-82
2024/03/12 03:43:50;;;;;;;10.38;3.08;;;;;;;;;;5018075;28;20045;-83
2024/03/12 03:46:17;;;;;;;12.80;3.35;;;;;;;;;;5012330;28;20045;-84
2024/03/12 03:48:44;;;;;;;10.57;2.58;;;;;;;;;;5016555;28;20060;-84
2024/03/12 03:51:10;;;;;;;10.27;2.58;;;;;;;;;;5009725;28;20025;-83
2024/03/12 03:53:36;;;;;;;8.10;2.45;;;;;;;;;;5014565;28;20041;-84
2024/03/12 03:56:02;;;;;;;9.52;2.45;;;;;;;;;;5012857;28;20134;-84
2024/03/12 03:58:29;;;;;;;12.68;3.00;;;;;;;;;;5008225;28;20406;-84
2024/03/12 04:00:55;;;;;;;12.65;3.30;;;;;;;;;;5013188;28;20044;-84
2024/03/12 04:03:23;;;;;;;11.70;3.08;;;;;;;;;;5012869;28;20583;-83
2024/03/12 04:05:51;;;;;;;10.82;3.15;;;;;;;;;;5013771;28;20029;-84
2024/03/12 04:08:18;;;;;;;12.10;3.05;;;;;;;;;;5017642;28;20042;-84
2024/03/12 04:10:44;;;;;;;11.82;3.40;;;;;;;;;;5016078;28;20028;-84
2024/03/12 04:13:10;;;;;;;12.25;3.28;;;;;;;;;;5015638;28;20029;-84
2024/03/12 04:15:36;;;;;;;13.25;3.65;;;;;;;;;;5016955;28;20284;-84
2024/03/12 04:18:02;;;;;;;12.45;3.40;;;;;;;;;;5016954;28;20139;-82
2024/03/12 04:20:28;;;;;;;11.63;3.33;;;;;;;;;;5022234;28;20026;-82
2024/03/12 04:22:55;;;;;;;10.65;2.75;;;;;;;;;;5014954;28;20084;-85
2024/03/12 04:25:21;;;;;;;10.85;2.40;;;;;;;;;;5006556;28;20029;-83
2024/03/12 04:27:48;;;;;;;11.15;3.05;;;;;;;;;;5014884;28;20072;-83
2024/03/12 04:30:14;;;;;;;10.20;3.00;;;;;;;;;;5010439;28;20112;-84
2024/03/12 04:32:40;;;;;;;13.55;2.70;;;;;;;;;;5014069;28;20049;-85
2024/03/12 04:35:12;;;;;;;9.30;2.45;;;;;;;;;;5012707;28;20029;-84
2024/03/12 04:37:38;;;;;;;10.25;3.25;;;;;;;;;;5014561;28;20353;-84
2024/03/12 04:40:08;;;;;;;11.55;3.15;;;;;;;;;;5016432;28;20636;-83
2024/03/12 04:42:37;;;;;;;12.90;3.05;;;;;;;;;;5027270;28;20025;-82
2024/03/12 04:45:06;;;;;;;13.07;3.13;;;;;;;;;;5027833;28;20024;-84
2024/03/12 04:47:33;;;;;;;11.27;2.72;;;;;;;;;;5012915;28;20030;-84
2024/03/12 04:49:59;;;;;;;10.70;2.60;;;;;;;;;;4997657;28;20064;-83
2024/03/12 04:52:26;;;;;;;11.43;2.85;;;;;;;;;;5013644;28;20029;-84
2024/03/12 04:54:52;;;;;;;10.02;2.95;;;;;;;;;;5017660;28;20040;-81
2024/03/12 04:57:18;;;;;;;11.85;3.05;;;;;;;;;;5007831;28;20022;-83
2024/03/12 04:59:44;;;;;;;11.27;2.67;;;;;;;;;;5012352;28;20464;-83
2024/03/12 05:02:11;;;;;;;10.57;2.45;;;;;;;;;;5011412;28;20029;-84
2024/03/12 05:04:38;;;;;;;;;;;;;;;;;;5013636;28;20037;-83
2024/03/12 05:07:04;;;;;;;10.48;3.17;;;;;;;;;;5016327;28;19913;-85
2024/03/12 05:09:30;;;;;;;9.02;2.67;;;;;;;;;;5010443;28;20034;-84
2024/03/12 05:11:56;;;;;;;11.65;3.10;;;;;;;;;;5013434;28;20108;-84
2024/03/12 05:14:23;;;;;;;11.23;2.80;;;;;;;;;;5014613;28;20028;-85
2024/03/12 05:16:50;;;;;;;11.43;3.38;;;;;;;;;;5016939;28;20132;-82
2024/03/12 05:19:17;;;;;;;11.60;3.17;;;;;;;;;;5009953;28;20034;-83
2024/03/12 05:21:43;;;;;;;;;;;;;;;;;;5019950;28;20044;-83
2024/03/12 05:24:09;;;;;;;12.18;3.33;;;;;;;;;;5014992;28;20421;-84
2024/03/12 05:26:43;;;;;;;10.95;3.30;;;;;;;;;;5014790;28;20596;-84
2024/03/12 05:29:10;;;;;;;12.73;3.35;;;;;;;;;;5008632;28;20072;-83
2024/03/12 05:31:39;;;;;;;;;;;;;;;;;;5009579;28;20031;-83
2024/03/12 05:34:27;;;;;;;13.27;3.47;;;;;;;;;;5013157;28;19941;-82
2024/03/12 05:37:03;;;;;;;9.85;3.25;;;;;;;;;;5006810;28;20044;-83
2024/03/12 05:39:50;;;;;;;13.98;3.67;;;;;;;;;;5007531;28;20492;-83
2024/03/12 05:48:09;;;;;;;12.98;3.28;;;;;;;;;;5014184;28;20147;-84
2024/03/12 05:50:38;;;;;;;12.95;3.60;;;;;;;;;;5013639;28;20029;-82
2024/03/12 05:53:05;;;;;;;12.88;3.58;;;;;;;;;;5015896;28;20029;-84
2024/03/12 05:55:31;;;;;;;10.88;3.25;;;;;;;;;;5015374;28;20056;-84
2024/03/12 05:57:57;;;;;;;14.88;3.88;;;;;;;;;;5021666;28;20025;-82
2024/03/12 06:00:23;;;;;;;14.25;3.67;;;;;;;;;;5013217;28;20453;-82
2024/03/12 06:02:49;;;;;;;11.25;3.33;;;;;;;;;;5018686;28;20032;-82
2024/03/12 06:05:16;;;;;;;10.98;3.40;;;;;;;;;;5015563;28;20041;-85
2024/03/12 06:07:42;;;;;;;;;;;;;;;;;;5028573;28;20033;-83
2024/03/12 06:10:08;;;;;;;14.05;3.70;;;;;;;;;;5022172;28;19966;-83
2024/03/12 06:12:35;;;;;;;10.20;3.53;;;;;;;;;;5016274;28;20053;-85
2024/03/12 06:15:01;;;;;;;11.77;3.10;;;;;;;;;;5016121;28;20064;-83
2024/03/12 06:17:27;;;;;;;11.00;3.25;;;;;;;;;;5012475;28;20041;-82
2024/03/12 06:19:53;;;;;;;11.70;3.13;;;;;;;;;;5023173;28;20047;-84
2024/03/12 06:22:19;;;;;;;;;;;;;;;;;;5038881;28;20067;-84
2024/03/12 06:24:48;;;;;;;9.15;2.20;;;;;;;;;;5024431;28;21192;-83
2024/03/12 06:27:16;;;;;;;11.10;2.50;;;;;;;;;;5014695;28;20025;-83
2024/03/12 06:29:43;;;;;;;10.70;2.65;;;;;;;;;;5013778;28;20038;-83
2024/03/12 06:32:10;;;;;;;9.98;2.50;;;;;;;;;;5010229;28;20115;-83
2024/03/12 06:34:36;;;;;;;9.95;2.90;;;;;;;;;;5011389;28;20033;-82
2024/03/12 06:37:02;;;;;;;10.32;2.60;;;;;;;;;;5014857;28;20069;-82
2024/03/12 06:39:31;;;;;;;11.80;2.55;;;;;;;;;;5013036;28;20044;-83
2024/03/12 06:41:58;;;;;;;8.98;2.80;;;;;;;;;;5019114;28;20055;-82
2024/03/12 06:44:25;;;;;;;13.15;3.50;;;;;;;;;;5012609;28;20120;-83
2024/03/12 06:46:52;;;;;;;10.77;3.45;;;;;;;;;;5011760;28;20045;-82
2024/03/12 06:49:20;;;;;;;11.95;3.55;;;;;;;;;;5009632;28;20025;-83
2024/03/12 06:51:50;;;;;;;11.55;3.10;;;;;;;;;;5011751;28;20182;-83
2024/03/12 06:54:17;;;;;;;12.52;3.00;;;;;;;;;;5006469;28;20032;-83
2024/03/12 06:56:43;;;;;;;12.60;3.58;;;;;;;;;;5015837;28;20435;-83
2024/03/12 06:59:10;;;;;;;12.77;3.80;;;;;;;;;;5008227;28;20038;-85
2024/03/12 07:01:43;;;;;;;14.48;3.95;;;;;;;;;;5008866;28;20099;-84
2024/03/12 07:04:10;;;;;;;11.95;3.60;;;;;;;;;;5010134;28;20037;-84
2024/03/12 07:06:42;;;;;;;9.73;2.90;;;;;;;;;;5023775;28;20029;-83
2024/03/12 07:09:09;;;;;;;12.55;3.70;;;;;;;;;;5022409;28;20301;-83
2024/03/12 07:11:41;;;;;;;10.90;3.60;;;;;;;;;;5017248;28;20024;-82
2024/03/12 07:14:42;;;;;;;13.02;3.45;;;;;;;;;;5012993;28;20688;-83
2024/03/12 07:17:00;;;;;;;12.63;3.70;;;;;;;;;;5007277;28;20041;-81
2024/03/12 07:19:26;;;;;;;10.70;2.90;;;;;;;;;;5002030;28;20303;-84
2024/03/12 07:21:54;;;;;;;12.23;3.15;;;;;;;;;;5009250;28;20033;-81
2024/03/12 07:24:21;;;;;;;14.52;3.22;;;;;;;;;;5001194;28;20128;-83
2024/03/12 07:26:47;;;;;;;11.60;2.80;;;;;;;;;;5002156;28;20052;-81
2024/03/12 07:29:14;;;;;;;8.63;2.40;;;;;;;;;;5001916;28;20068;-82
2024/03/12 07:31:40;;;;;;;;;;;;;;;;;;5006057;28;20140;-84
2024/03/12 07:34:06;;;;;;;10.68;2.42;;;;;;;;;;5006577;28;19916;-82
2024/03/12 07:36:33;;;;;;;11.88;3.42;;;;;;;;;;5006298;28;20556;-82
2024/03/12 07:39:00;;;;;;;10.65;3.10;;;;;;;;;;5003485;28;20146;-81
2024/03/12 07:41:27;;;;;;;11.35;3.40;;;;;;;;;;4998398;28;20678;-83
2024/03/12 07:43:53;;;;;;;11.13;3.35;;;;;;;;;;5008861;28;20029;-83
2024/03/12 07:46:19;;;;;;;11.82;3.95;;;;;;;;;;5011360;28;20041;-82
2024/03/12 07:48:45;;;;;;;12.85;3.80;;;;;;;;;;5010141;28;21317;-83
2024/03/12 07:51:12;;;;;;;11.63;4.05;;;;;;;;;;5006804;28;20041;-84
2024/03/12 07:53:39;;;;;;;16.05;4.32;;;;;;;;;;5008576;28;20032;-85
2024/03/12 07:56:06;;;;;;;9.63;3.42;;;;;;;;;;5008104;28;20049;-83
2024/03/12 07:58:33;;;;;;;12.25;3.28;;;;;;;;;;5017995;28;20030;-84
2024/03/12 08:01:01;;;;;;;10.15;3.63;;;;;;;;;;5016360;28;20044;-84
2024/03/12 08:03:27;;;;;;;11.75;2.80;;;;;;;;;;5007813;28;20650;-84
2024/03/12 08:05:53;;;;;;;11.88;3.40;;;;;;;;;;5008676;28;20467;-82
2024/03/12 08:08:19;;;;;;;11.07;3.00;;;;;;;;;;5006983;28;20034;-83
2024/03/12 08:10:45;;;;;;;;;;;;;;;;;;5004820;28;20078;-79
2024/03/12 08:13:12;;;;;;;11.63;3.00;;;;;;;;;;5004658;28;19935;-81
2024/03/12 08:15:38;;;;;;;14.27;3.95;;;;;;;;;;5006391;28;20460;-81
2024/03/12 08:18:05;;;;;;;11.77;3.00;;;;;;;;;;5005751;28;20203;-81
2024/03/12 08:20:31;;;;;;;12.73;2.97;;;;;;;;;;5001464;28;20730;-79
2024/03/12 08:22:59;;;;;;;11.82;2.50;;;;;;;;;;5005198;28;20701;-81
2024/03/12 08:25:25;;;;;;;9.77;2.17;;;;;;;;;;4999967;28;22095;-79
2024/03/12 08:27:51;;;;;;;11.48;2.55;;;;;;;;;;5002049;28;20037;-80
2024/03/12 08:30:18;;;;;;;12.65;2.70;;;;;;;;;;4999558;28;20037;-80
2024/03/12 08:32:44;;;;;;;10.57;2.60;;;;;;;;;;5005807;28;20141;-81
2024/03/12 08:35:11;;;;;;;11.80;2.70;;;;;;;;;;5002663;28;20021;-79
2024/03/12 08:37:40;;;;;;;13.68;2.45;;;;;;;;;;5003685;28;20689;-79
2024/03/12 08:40:07;;;;;;;10.95;2.35;;;;;;;;;;5001602;28;20041;-79
2024/03/12 08:42:33;;;;;;;10.80;2.40;;;;;;;;;;5000698;28;20026;-79
2024/03/12 08:44:59;;;;;;;8.55;2.20;;;;;;;;;;5004293;28;20112;-82
2024/03/12 08:47:25;;;;;;;;;;;;;;;;;;5004296;28;20163;-81
2024/03/12 08:49:51;;;;;;;13.40;2.83;;;;;;;;;;5004037;28;19916;-79
2024/03/12 08:52:18;;;;;;;10.55;2.58;;;;;;;;;;5000022;28;21004;-81
2024/03/12 08:54:44;;;;;;;;;;;;;;;;;;5000325;28;20038;-78
2024/03/12 08:57:10;;;;;;;13.05;2.63;;;;;;;;;;4999616;28;20743;-78
2024/03/12 08:59:36;;;;;;;9.25;2.28;;;;;;;;;;5000183;28;20105;-78
2024/03/12 09:02:02;;;;;;;9.73;2.33;;;;;;;;;;5004403;28;20044;-78
2024/03/12 09:04:30;;;;;;;8.73;2.30;;;;;;;;;;5003454;28;20028;-78
2024/03/12 09:07:00;;;;;;;10.90;2.10;;;;;;;;;;4998486;28;20030;-80
2024/03/12 09:09:26;;;;;;;10.85;2.38;;;;;;;;;;5000889;28;20653;-80
2024/03/12 09:11:57;;;;;;;11.18;2.63;;;;;;;;;;5005504;28;21115;-77
2024/03/12 09:14:24;;;;;;;22.73;4.15;;;;;;;;;;4998933;28;20554;-76
2024/03/12 09:16:51;;;;;;;14.95;3.15;;;;;;;;;;5005095;28;20041;-75
2024/03/12 09:19:17;;;;;;;12.13;2.95;;;;;;;;;;5000250;28;20033;-75
2024/03/12 09:21:43;;;;;;;;;;;;;;;;;;5002672;28;20040;-74
2024/03/12 09:24:09;;;;;;;10.38;2.60;;;;;;;;;;5005173;28;19919;-75
2024/03/12 09:26:36;;;;;;;9.85;1.90;;;;;;;;;;5006745;28;20033;-74
2024/03/12 09:29:05;;;;;;;10.60;2.00;;;;;;;;;;5006936;28;20036;-78
2024/03/12 09:31:32;;;;;;;10.30;1.83;;;;;;;;;;5007776;28;20539;-77
2024/03/12 09:33:59;;;;;;;10.05;2.00;;;;;;;;;;5008813;28;20020;-77
2024/03/12 09:36:25;;;;;;;10.73;2.15;;;;;;;;;;4999113;28;20037;-75
2024/03/12 09:38:51;;;;;;;9.43;2.13;;;;;;;;;;5004916;28;20049;-77
2024/03/12 09:41:19;;;;;;;10.15;2.60;;;;;;;;;;5005200;28;20022;-76
2024/03/12 09:43:46;;;;;;;9.90;2.33;;;;;;;;;;5004787;28;20036;-75
2024/03/12 09:46:13;;;;;;;9.57;2.58;;;;;;;;;;5001205;28;20026;-76
2024/03/12 09:48:39;;;;;;;9.45;2.50;;;;;;;;;;5007621;28;20792;-75
2024/03/12 09:51:06;;;;;;;9.68;2.20;;;;;;;;;;5004322;28;20025;-75
2024/03/12 09:53:33;;;;;;;11.80;2.22;;;;;;;;;;5007650;28;20020;-75
2024/03/12 09:56:03;;;;;;;8.07;1.92;;;;;;;;;;5002928;28;20065;-75
2024/03/12 09:58:29;;;;;;;8.88;2.28;;;;;;;;;;5001226;28;20034;-75
2024/03/12 10:00:55;;;;;;;9.27;2.38;;;;;;;;;;5014156;28;20345;-75
2024/03/12 10:03:24;;;;;;;9.18;2.33;;;;;;;;;;5004832;28;21026;-75
2024/03/12 10:05:53;;;;;;;8.65;1.92;;;;;;;;;;5005306;28;20099;-77
2024/03/12 10:08:21;;;;;;;7.57;1.98;;;;;;;;;;5006304;28;20021;-77
2024/03/12 10:10:48;;;;;;;8.05;2.08;;;;;;;;;;5014918;28;20038;-75
2024/03/12 10:13:17;;;;;;;12.05;2.50;;;;;;;;;;5003497;28;20670;-74
2024/03/12 10:15:59;;;;;;;9.15;2.35;;;;;;;;;;5007161;28;20056;-74
2024/03/12 10:18:29;;;;;;;8.15;2.17;;;;;;;;;;5003006;28;21525;-74
2024/03/12 10:20:56;;;;;;;8.68;2.25;;;;;;;;;;5000512;28;20034;-75
2024/03/12 10:23:25;;;;;;;12.55;2.70;;;;;;;;;;4999113;28;20120;-75
2024/03/12 10:25:52;;;;;;;10.27;2.50;;;;;;;;;;5007077;28;20033;-75
2024/03/12 10:28:24;;;;;;;9.00;2.10;;;;;;;;;;4999013;28;20030;-75
2024/03/12 10:30:51;;;;;;;8.52;2.10;;;;;;;;;;5007740;28;20033;-81
2024/03/12 10:33:18;;;;;;;12.18;2.40;;;;;;;;;;5002565;28;20043;-80
2024/03/12 10:35:45;;;;;;;9.80;2.20;;;;;;;;;;5004483;28;20083;-80
2024/03/12 10:38:25;;;;;;;9.40;2.03;;;;;;;;;;5001018;28;20061;-79
2024/03/12 10:40:52;;;;;;;7.82;1.85;;;;;;;;;;5003749;28;20549;-79
2024/03/12 10:43:24;;;;;;;9.05;1.88;;;;;;;;;;5000212;28;20037;-79
2024/03/12 10:45:50;;;;;;;8.07;2.00;;;;;;;;;;5007434;28;20171;-79
2024/03/12 10:48:18;;;;;;;8.40;2.10;;;;;;;;;;4999539;28;20714;-79
2024/03/12 10:50:44;;;;;;;9.13;1.83;;;;;;;;;;5005159;28;20109;-80
2024/03/12 10:53:11;;;;;;;8.50;2.20;;;;;;;;;;5001537;28;20192;-79
2024/03/12 10:55:39;;;;;;;7.40;1.85;;;;;;;;;;5006431;28;20034;-77
2024/03/12 10:58:08;;;;;;;8.75;1.80;;;;;;;;;;5002005;28;20124;-78
2024/03/12 11:00:39;;;;;;;8.13;1.85;;;;;;;;;;5003447;28;20033;-78
2024/03/12 11:03:06;;;;;;;6.80;1.90;;;;;;;;;;5001060;28;20358;-78
2024/03/12 11:05:34;;;;;;;10.73;2.30;;;;;;;;;;5004767;28;20056;-79
2024/03/12 11:08:00;;;;;;;8.82;1.85;;;;;;;;;;5003650;28;20063;-80
2024/03/12 11:10:30;;;;;;;7.65;1.95;;;;;;;;;;5000855;28;20041;-78
2024/03/12 11:13:00;;;;;;;9.25;2.00;;;;;;;;;;5004111;28;20033;-79
2024/03/12 11:15:26;;;;;;;8.35;1.88;;;;;;;;;;5000164;28;20825;-77
2024/03/12 11:17:53;;;;;;;8.30;1.75;;;;;;;;;;5013823;28;20074;-83
2024/03/12 11:20:23;;;;;;;8.50;1.75;;;;;;;;;;5010521;28;20522;-78
2024/03/12 11:22:54;;;;;;;8.07;1.88;;;;;;;;;;5004925;28;20029;-82
2024/03/12 11:25:34;;;;;;;6.38;1.50;;;;;;;;;;5001684;28;20025;-80
2024/03/12 11:28:20;;;;;;;6.78;1.80;;;;;;;;;;5001836;28;20071;-82
2024/03/12 11:31:02;;;;;;;8.60;1.95;;;;;;;;;;5013623;28;20049;-82
2024/03/12 11:33:49;;;;;;;9.15;1.90;;;;;;;;;;5009462;28;20133;-82
2024/03/12 11:36:18;;;;;;;7.57;1.77;;;;;;;;;;5006353;28;20163;-83
2024/03/12 11:38:45;;;;;;;9.10;2.20;;;;;;;;;;5009947;28;20425;-81
2024/03/12 11:41:12;;;;;;;7.75;2.10;;;;;;;;;;5004598;28;20028;-85
2024/03/12 11:43:40;;;;;;;8.18;2.20;;;;;;;;;;5009642;28;20060;-83
2024/03/12 11:46:09;;;;;;;10.50;2.33;;;;;;;;;;5021035;28;20465;-84
2024/03/12 11:48:40;;;;;;;9.98;2.58;;;;;;;;;;5010696;28;20145;-83
2024/03/12 11:51:11;;;;;;;9.75;2.60;;;;;;;;;;5009178;28;20116;-81
2024/03/12 11:53:38;;;;;;;8.07;2.45;;;;;;;;;;5008856;28;20037;-82
2024/03/12 11:56:27;;;;;;;9.77;2.80;;;;;;;;;;5009066;28;20030;-84
2024/03/12 11:58:55;;;;;;;8.02;2.25;;;;;;;;;;5008718;28;20841;-83
2024/03/12 12:01:31;;;;;;;8.40;2.35;;;;;;;;;;5002643;28;20043;-83
2024/03/12 12:04:01;;;;;;;9.23;2.03;;;;;;;;;;5007992;28;20155;-82
2024/03/12 12:06:27;;;;;;;8.60;2.60;;;;;;;;;;5017433;28;20030;-83
2024/03/12 12:08:54;;;;;;;9.65;2.53;;;;;;;;;;5014980;28;20032;-83
2024/03/12 12:11:20;;;;;;;8.00;2.10;;;;;;;;;;5006143;28;20078;-84
2024/03/12 12:13:47;;;;;;;10.07;2.30;;;;;;;;;;5012194;28;20033;-84
2024/03/12 12:16:17;;;;;;;9.63;2.25;;;;;;;;;;5000939;28;20065;-77
2024/03/12 12:18:44;;;;;;;7.60;1.90;;;;;;;;;;5001214;28;20339;-76
2024/03/12 12:21:11;;;;;;;8.25;2.10;;;;;;;;;;4995998;28;20121;-81
2024/03/12 12:23:38;;;;;;;7.88;1.95;;;;;;;;;;5004010;28;20041;-80
2024/03/12 12:26:05;;;;;;;7.18;1.92;;;;;;;;;;5000091;28;20123;-83
2024/03/12 12:28:32;;;;;;;9.18;2.40;;;;;;;;;;5002454;28;20036;-83
2024/03/12 12:31:00;;;;;;;9.50;2.30;;;;;;;;;;4998314;28;20026;-81
2024/03/12 12:33:30;;;;;;;8.85;2.03;;;;;;;;;;5004478;28;20042;-87
2024/03/12 12:35:58;;;;;;;11.02;2.17;;;;;;;;;;5006568;28;20731;-82
2024/03/12 12:38:25;;;;;;;9.95;2.10;;;;;;;;;;4996032;28;20056;-83
2024/03/12 12:40:53;;;;;;;8.25;2.03;;;;;;;;;;5001769;28;20029;-81
2024/03/12 12:43:19;;;;;;;8.82;2.15;;;;;;;;;;4999100;28;20499;-81
2024/03/12 12:45:56;;;;;;;8.95;2.13;;;;;;;;;;5002025;28;20033;-81
2024/03/12 12:48:25;;;;;;;7.63;2.00;;;;;;;;;;5000995;28;20156;-78
2024/03/12 12:50:59;;;;;;;9.57;2.13;;;;;;;;;;5001615;28;20023;-79
2024/03/12 12:53:25;;;;;;;8.23;1.77;;;;;;;;;;5001454;28;23788;-79
2024/03/12 12:55:58;;;;;;;8.88;1.83;;;;;;;;;;5002329;28;20033;-78
2024/03/12 12:58:25;;;;;;;7.80;2.15;;;;;;;;;;5003162;28;20033;-79
2024/03/12 13:01:11;;;;;;;9.65;2.05;;;;;;;;;;5002990;28;20112;-78
2024/03/12 13:03:40;;;;;;;;;;;;;;;;;;5003620;28;20041;-78
2024/03/12 13:06:17;;;;;;;8.20;1.83;;;;;;;;;;4994792;28;19956;-80
2024/03/12 13:08:44;;;;;;;10.00;2.25;;;;;;;;;;5005520;28;20065;-79
2024/03/12 13:11:12;;;;;;;10.07;1.88;;;;;;;;;;4995453;28;20120;-80
2024/03/12 13:13:39;;;;;;;9.43;2.17;;;;;;;;;;5000276;28;20471;-79
2024/03/12 13:16:13;;;;;;;8.80;1.88;;;;;;;;;;5005762;28;20034;-79
2024/03/12 13:18:45;;;;;;;10.52;2.28;;;;;;;;;;4998655;28;20033;-78
2024/03/12 13:21:15;;;;;;;8.55;1.88;;;;;;;;;;4998409;28;20044;-78
2024/03/12 13:23:45;;;;;;;7.95;1.80;;;;;;;;;;5001310;28;20055;-78
2024/03/12 13:26:13;;;;;;;10.32;2.35;;;;;;;;;;5000881;28;20037;-79
2024/03/12 13:28:43;;;;;;;11.38;2.45;;;;;;;;;;5007260;28;20034;-80
2024/03/12 13:31:10;;;;;;;7.95;2.00;;;;;;;;;;5006259;28;20163;-79
2024/03/12 13:33:37;;;;;;;11.23;2.67;;;;;;;;;;5006762;28;20147;-78
2024/03/12 13:36:04;;;;;;;8.93;2.03;;;;;;;;;;5004398;28;20029;-79
2024/03/12 13:38:31;;;;;;;9.52;2.05;;;;;;;;;;5003275;28;20141;-78
2024/03/12 13:40:57;;;;;;;12.55;2.17;;;;;;;;;;5006165;28;20172;-77
2024/03/12 13:43:29;;;;;;;8.65;1.90;;;;;;;;;;5006153;28;20731;-78
2024/03/12 13:45:55;;;;;;;11.13;2.30;;;;;;;;;;5007157;28;20033;-78
2024/03/12 13:48:28;;;;;;;10.95;2.00;;;;;;;;;;5003732;28;20103;-79
2024/03/12 13:50:58;;;;;;;9.55;1.70;;;;;;;;;;5000818;28;20055;-80
2024/03/12 13:53:28;;;;;;;9.38;1.77;;;;;;;;;;5004418;28;20029;-79
2024/03/12 13:56:05;;;;;;;10.73;2.08;;;;;;;;;;5003771;28;20164;-77
2024/03/12 13:58:33;;;;;;;9.50;2.03;;;;;;;;;;5000670;28;20040;-80
2024/03/12 14:01:01;;;;;;;7.68;1.80;;;;;;;;;;5001569;28;20788;-77
2024/03/12 14:03:30;;;;;;;7.97;1.83;;;;;;;;;;4996894;28;20900;-79
2024/03/12 14:06:02;;;;;;;8.73;1.98;;;;;;;;;;5007404;28;20048;-79
2024/03/12 14:08:29;;;;;;;8.20;2.13;;;;;;;;;;5000579;28;20045;-80
2024/03/12 14:10:57;;;;;;;11.27;2.00;;;;;;;;;;5004257;28;20036;-79
2024/03/12 14:13:23;;;;;;;8.35;1.83;;;;;;;;;;5000251;28;20064;-80
2024/03/12 14:15:49;;;;;;;9.07;1.92;;;;;;;;;;5005933;28;20027;-78
2024/03/12 14:18:15;;;;;;;10.65;2.33;;;;;;;;;;4997243;28;20045;-78
2024/03/12 14:20:45;;;;;;;8.07;1.77;;;;;;;;;;5008261;28;20057;-78
2024/03/12 14:23:11;;;;;;;11.55;2.00;;;;;;;;;;4999839;28;20463;-79
2024/03/12 14:25:37;;;;;;;8.90;1.92;;;;;;;;;;5009536;28;20034;-78
2024/03/12 14:28:06;;;;;;;10.43;2.30;;;;;;;;;;5012850;28;20033;-78
2024/03/12 14:30:32;;;;;;;10.50;2.40;;;;;;;;;;5009423;28;20041;-77
2024/03/12 14:33:00;;;;;;;11.43;2.30;;;;;;;;;;5002108;28;20024;-79
2024/03/12 14:35:27;;;;;;;10.63;2.50;;;;;;;;;;4999589;28;20037;-79
2024/03/12 14:37:53;;;;;;;15.20;2.25;;;;;;;;;;5005954;28;20085;-78
2024/03/12 14:40:19;;;;;;;13.27;2.05;;;;;;;;;;5000998;28;20029;-77
2024/03/12 14:42:46;;;;;;;11.15;1.88;;;;;;;;;;5001144;28;20031;-78
2024/03/12 14:45:13;;;;;;;10.63;2.00;;;;;;;;;;4997410;28;20030;-79
2024/03/12 14:47:40;;;;;;;6.65;1.70;;;;;;;;;;5001215;28;20025;-77
2024/03/12 14:50:09;;;;;;;10.20;1.90;;;;;;;;;;5000207;28;20044;-77